Time;durP1;ratioP1;P1;durP2;ratioP2;P2;SDS_P1;SDS_P2;PMS_P1;PMS_P2;Temp;Humidity;BMP_temperature;BMP_pressure;BME280_temperature;BME280_humidity;BME280_pressure;Samples;Min_cycle;Max_cycle;Signal;HPM_P1;HPM_P2
2022/03/17 00:01:20;;;;;;;4.75;2.10;;;7.60;62.50;;;;;;4991275;28;20038;-77
2022/03/17 00:03:46;;;;;;;2.97;1.40;;;7.60;62.60;;;;;;5004120;28;20040;-78
2022/03/17 00:06:13;;;;;;;2.95;1.05;;;7.50;62.40;;;;;;5005842;28;20079;-77
2022/03/17 00:08:40;;;;;;;2.40;0.90;;;7.50;62.50;;;;;;5004285;28;20124;-77
2022/03/17 00:11:05;;;;;;;2.05;1.30;;;7.50;62.50;;;;;;4995640;28;20042;-77
2022/03/17 00:13:31;;;;;;;6.30;1.63;;;7.40;62.40;;;;;;4991816;28;20542;-77
2022/03/17 00:15:57;;;;;;;3.72;1.13;;;7.40;62.40;;;;;;5006508;28;20075;-77
2022/03/17 00:18:23;;;;;;;3.60;1.50;;;7.40;62.40;;;;;;5006642;28;20467;-77
2022/03/17 00:20:49;;;;;;;3.65;1.50;;;7.40;62.40;;;;;;5006713;28;20460;-77
2022/03/17 00:23:15;;;;;;;4.10;1.25;;;7.30;62.30;;;;;;5008468;28;20034;-77
2022/03/17 00:25:41;;;;;;;2.10;1.40;;;7.30;62.30;;;;;;4997856;28;20104;-77
2022/03/17 00:28:07;;;;;;;2.88;1.40;;;7.30;62.30;;;;;;5022073;28;20030;-77
2022/03/17 00:30:35;;;;;;;4.90;1.52;;;7.20;62.10;;;;;;5006144;28;20500;-78
2022/03/17 00:33:01;;;;;;;3.25;1.77;;;7.20;62.20;;;;;;5007360;28;20088;-77
2022/03/17 00:35:36;;;;;;;5.20;1.40;;;7.20;62.20;;;;;;4998222;28;20164;-77
2022/03/17 00:38:03;;;;;;;3.17;1.23;;;7.10;62.00;;;;;;5004343;28;20388;-77
2022/03/17 00:40:30;;;;;;;5.10;1.60;;;7.10;62.10;;;;;;5005847;28;20512;-77
2022/03/17 00:42:56;;;;;;;4.05;1.55;;;7.00;61.90;;;;;;5004429;28;20057;-77
2022/03/17 00:45:25;;;;;;;3.60;1.50;;;7.00;61.90;;;;;;5004131;28;20053;-77
2022/03/17 00:47:51;;;;;;;2.63;1.83;;;7.00;61.90;;;;;;5005097;28;20103;-77
2022/03/17 00:50:17;;;;;;;4.38;1.58;;;6.90;61.80;;;;;;5006091;28;20048;-77
2022/03/17 00:52:43;;;;;;;3.60;1.63;;;6.90;61.80;;;;;;4991781;28;20034;-76
2022/03/17 00:55:09;;;;;;;3.10;1.48;;;6.90;61.80;;;;;;5020929;28;20045;-78
2022/03/17 00:57:39;;;;;;;2.67;1.30;;;6.90;61.80;;;;;;5003918;28;20402;-78
2022/03/17 01:00:08;;;;;;;3.92;1.80;;;6.80;61.70;;;;;;4996418;28;20068;-78
2022/03/17 01:02:34;;;;;;;2.92;1.85;;;6.70;61.50;;;;;;5000502;28;20030;-78
2022/03/17 01:05:00;;;;;;;2.78;2.15;;;6.70;61.50;;;;;;5004836;28;20064;-78
2022/03/17 01:07:26;;;;;;;2.75;1.48;;;6.70;61.60;;;;;;5003156;28;20032;-77
2022/03/17 01:09:52;;;;;;;3.58;1.45;;;6.60;61.40;;;;;;5005281;28;20067;-79
2022/03/17 01:12:18;;;;;;;3.38;1.58;;;6.60;61.40;;;;;;5003238;28;20421;-78
2022/03/17 01:14:44;;;;;;;2.60;1.83;;;6.60;61.50;;;;;;5001898;28;20045;-77
2022/03/17 01:17:10;;;;;;;4.15;1.63;;;6.50;61.30;;;;;;5008008;28;20045;-77
2022/03/17 01:19:36;;;;;;;3.03;2.35;;;6.50;61.30;;;;;;5000315;28;20030;-80
2022/03/17 01:22:02;;;;;;;4.55;1.77;;;6.50;61.40;;;;;;5003518;28;20412;-78
2022/03/17 01:24:28;;;;;;;3.45;1.63;;;6.50;61.40;;;;;;5002617;28;20026;-77
2022/03/17 01:26:54;;;;;;;4.63;1.52;;;6.40;61.20;;;;;;5005593;28;20033;-77
2022/03/17 01:29:20;;;;;;;4.50;1.90;;;6.40;61.20;;;;;;5011010;28;20034;-77
2022/03/17 01:31:46;;;;;;;5.72;1.73;;;6.40;61.20;;;;;;5011592;28;20511;-77
2022/03/17 01:34:12;;;;;;;3.55;1.90;;;6.30;61.10;;;;;;5008508;28;20140;-78
2022/03/17 01:36:38;;;;;;;4.00;2.22;;;6.30;61.10;;;;;;4997863;28;20147;-77
2022/03/17 01:39:04;;;;;;;3.97;1.77;;;6.30;61.10;;;;;;5010001;28;20621;-77
2022/03/17 01:41:30;;;;;;;3.83;1.90;;;6.30;61.10;;;;;;5004673;28;20034;-77
2022/03/17 01:43:56;;;;;;;3.95;1.65;;;6.20;60.90;;;;;;5009941;28;20045;-77
2022/03/17 01:46:22;;;;;;;3.55;1.67;;;6.20;60.90;;;;;;5010726;28;20224;-77
2022/03/17 01:48:48;;;;;;;4.93;2.42;;;6.20;60.90;;;;;;5005393;28;20033;-77
2022/03/17 01:51:14;;;;;;;4.10;1.60;;;6.10;61.00;;;;;;5006640;28;20113;-77
2022/03/17 01:53:41;;;;;;;2.40;1.52;;;6.10;60.80;;;;;;5008772;28;20662;-77
2022/03/17 01:56:07;;;;;;;3.08;1.63;;;6.10;60.80;;;;;;4996148;28;20034;-77
2022/03/17 01:58:33;;;;;;;2.28;1.55;;;6.10;60.90;;;;;;5008742;28;20128;-77
2022/03/17 02:00:59;;;;;;;2.30;1.50;;;6.00;60.70;;;;;;5003910;28;20193;-77
2022/03/17 02:03:27;;;;;;;3.40;1.98;;;6.00;60.70;;;;;;4996764;28;20366;-76
2022/03/17 02:05:54;;;;;;;4.20;1.73;;;6.00;60.80;;;;;;4993813;28;20491;-77
2022/03/17 02:08:20;;;;;;;3.75;2.13;;;6.00;60.70;;;;;;5009098;28;20396;-77
2022/03/17 02:13:32;;;;;;;4.93;1.45;;;5.90;60.60;;;;;;4994258;28;20034;-78
2022/03/17 02:16:02;;;;;;;3.15;1.75;;;5.90;60.60;;;;;;5008761;28;20033;-77
2022/03/17 02:18:28;;;;;;;3.38;1.52;;;5.90;60.60;;;;;;5008820;28;20095;-78
2022/03/17 02:20:57;;;;;;;4.57;1.88;;;5.80;60.40;;;;;;5008380;28;20193;-77
2022/03/17 02:26:07;;;;;;;3.05;1.85;;;5.80;60.50;;;;;;5007716;28;20018;-77
2022/03/17 02:28:35;;;;;;;3.90;1.70;;;5.80;60.40;;;;;;5008135;28;20041;-77
2022/03/17 02:31:02;;;;;;;4.05;1.83;;;5.70;60.30;;;;;;5006369;28;20045;-76
2022/03/17 02:33:28;;;;;;;4.53;1.63;;;5.70;60.30;;;;;;5023457;28;20044;-76
2022/03/17 02:35:54;;;;;;;3.33;1.88;;;5.70;60.30;;;;;;5007664;28;20030;-76
2022/03/17 02:38:21;;;;;;;4.45;1.50;;;5.70;60.40;;;;;;4995287;28;20046;-76
2022/03/17 02:40:52;;;;;;;4.38;2.00;;;5.60;60.20;;;;;;5009546;28;20040;-76
2022/03/17 02:43:19;;;;;;;3.65;1.73;;;5.60;60.20;;;;;;5006347;28;20053;-77
2022/03/17 02:45:46;;;;;;;3.17;1.67;;;5.60;60.20;;;;;;5044274;22;20057;-81
2022/03/17 02:48:12;;;;;;;2.55;1.75;;;5.60;60.20;;;;;;5034088;28;20111;-79
2022/03/17 02:50:38;;;;;;;2.78;1.52;;;5.50;60.10;;;;;;5027452;28;20073;-79
2022/03/17 02:53:09;;;;;;;4.18;1.50;;;5.50;60.10;;;;;;5034228;28;20033;-80
2022/03/17 02:55:38;;;;;;;4.32;1.90;;;5.50;60.10;;;;;;5034937;28;20018;-79
2022/03/17 02:58:05;;;;;;;3.20;1.60;;;5.40;60.40;;;;;;5042180;28;20045;-79
2022/03/17 03:00:31;;;;;;;3.00;1.67;;;5.40;59.90;;;;;;5031645;28;20018;-79
2022/03/17 03:02:57;;;;;;;4.60;2.67;;;5.40;59.90;;;;;;5050850;28;20038;-78
2022/03/17 03:05:23;;;;;;;6.03;2.22;;;5.40;60.00;;;;;;5034628;28;20066;-78
2022/03/17 03:07:49;;;;;;;5.30;2.30;;;5.40;60.00;;;;;;5016573;28;20044;-79
2022/03/17 03:10:15;;;;;;;4.20;1.88;;;5.30;59.80;;;;;;5012224;28;20026;-79
2022/03/17 03:12:41;;;;;;;4.88;1.80;;;5.30;59.80;;;;;;5009775;28;20537;-79
2022/03/17 03:15:08;;;;;;;4.85;2.20;;;5.30;59.80;;;;;;5006828;28;20155;-79
2022/03/17 03:17:34;;;;;;;4.18;2.00;;;5.30;59.80;;;;;;5011881;28;20037;-79
2022/03/17 03:19:59;;;;;;;2.97;1.40;;;5.30;59.80;;;;;;4998453;28;20092;-80
2022/03/17 03:22:29;;;;;;;3.75;2.22;;;5.20;59.70;;;;;;5009494;28;20030;-79
2022/03/17 03:24:56;;;;;;;5.90;2.13;;;5.20;59.70;;;;;;5009716;28;20030;-81
2022/03/17 03:27:27;;;;;;;6.25;2.00;;;5.20;59.70;;;;;;5005766;28;20393;-81
2022/03/17 03:29:57;;;;;;;4.80;2.17;;;5.20;59.70;;;;;;5009460;28;20040;-81
2022/03/17 03:32:25;;;;;;;4.65;1.85;;;5.20;59.70;;;;;;5009027;28;20033;-80
2022/03/17 03:34:51;;;;;;;5.90;1.90;;;5.10;59.50;;;;;;5007801;28;20052;-80
2022/03/17 03:37:24;;;;;;;4.40;1.85;;;5.10;59.50;;;;;;5018289;28;20054;-80
2022/03/17 03:39:55;;;;;;;6.25;1.80;;;5.10;59.50;;;;;;5010513;28;20041;-80
2022/03/17 03:42:22;;;;;;;5.85;2.00;;;5.10;59.60;;;;;;5010856;28;20032;-80
2022/03/17 03:44:48;;;;;;;5.75;2.30;;;5.10;59.60;;;;;;5009323;28;20282;-80
2022/03/17 03:47:15;;;;;;;3.17;1.50;;;5.00;59.40;;;;;;5006325;28;20130;-80
2022/03/17 03:49:42;;;;;;;4.72;2.50;;;5.00;59.50;;;;;;5008303;28;20080;-79
2022/03/17 03:52:12;;;;;;;4.85;2.22;;;5.00;59.50;;;;;;5000773;28;20353;-79
2022/03/17 03:54:39;;;;;;;5.45;2.67;;;5.00;59.50;;;;;;5008277;28;20580;-79
2022/03/17 03:57:06;;;;;;;4.50;1.60;;;5.00;59.50;;;;;;5002347;28;20030;-79
2022/03/17 03:59:32;;;;;;;4.35;2.15;;;5.00;59.50;;;;;;5008173;28;20477;-79
2022/03/17 04:02:01;;;;;;;3.53;1.90;;;4.90;59.30;;;;;;5009238;28;20034;-79
2022/03/17 04:04:29;;;;;;;5.53;2.17;;;4.90;59.30;;;;;;5008821;28;20045;-79
2022/03/17 04:06:58;;;;;;;5.47;2.03;;;4.90;59.30;;;;;;5000433;28;20116;-79
2022/03/17 04:09:29;;;;;;;3.08;1.77;;;4.90;59.30;;;;;;5006008;28;20026;-79
2022/03/17 04:11:56;;;;;;;5.43;2.10;;;4.90;59.30;;;;;;4994019;28;20042;-79
2022/03/17 04:14:23;;;;;;;3.22;1.92;;;4.90;59.30;;;;;;5007639;28;20022;-78
2022/03/17 04:16:49;;;;;;;4.90;2.15;;;4.90;59.30;;;;;;5009037;28;20719;-79
2022/03/17 04:19:15;;;;;;;3.30;2.15;;;4.90;59.30;;;;;;5009315;28;20048;-78
2022/03/17 04:21:42;;;;;;;3.25;1.73;;;4.90;59.30;;;;;;5009198;28;20030;-79
2022/03/17 04:24:08;;;;;;;2.70;1.80;;;4.90;59.30;;;;;;5004312;28;20044;-78
2022/03/17 04:26:35;;;;;;;4.40;1.92;;;4.90;59.30;;;;;;5000005;28;20560;-79
2022/03/17 04:29:00;;;;;;;3.72;1.90;;;4.80;59.10;;;;;;4991347;28;20089;-79
2022/03/17 04:31:27;;;;;;;2.85;1.75;;;4.80;59.10;;;;;;5004101;28;20026;-78
2022/03/17 04:33:53;;;;;;;3.15;1.90;;;4.80;59.10;;;;;;5014000;28;20037;-80
2022/03/17 04:36:19;;;;;;;3.05;2.10;;;4.80;59.10;;;;;;5010675;28;20199;-79
2022/03/17 04:38:45;;;;;;;4.88;2.20;;;4.80;59.10;;;;;;4996686;28;20046;-79
2022/03/17 04:41:14;;;;;;;3.97;2.20;;;4.80;59.10;;;;;;5015715;28;20022;-79
2022/03/17 04:43:41;;;;;;;3.85;1.67;;;4.70;58.90;;;;;;5005748;28;20022;-79
2022/03/17 04:46:07;;;;;;;2.78;1.42;;;4.70;59.00;;;;;;5007424;28;20042;-79
2022/03/17 04:48:33;;;;;;;3.55;1.55;;;4.70;59.00;;;;;;5003291;28;20085;-79
2022/03/17 04:50:59;;;;;;;3.97;2.13;;;4.70;59.00;;;;;;4995183;28;20030;-79
2022/03/17 04:53:29;;;;;;;4.03;1.83;;;4.60;58.80;;;;;;5009907;28;20040;-79
2022/03/17 04:56:10;;;;;;;2.22;1.60;;;4.70;59.00;;;;;;5022777;28;20029;-79
2022/03/17 04:58:37;;;;;;;4.05;1.95;;;4.60;58.80;;;;;;5005736;28;20049;-79
2022/03/17 05:01:05;;;;;;;3.83;2.10;;;4.60;58.90;;;;;;5010664;28;20030;-79
2022/03/17 05:03:31;;;;;;;3.95;1.90;;;4.60;58.90;;;;;;5003656;28;20129;-79
2022/03/17 05:05:58;;;;;;;2.72;2.17;;;4.60;58.90;;;;;;5027849;28;20448;-79
2022/03/17 05:08:25;;;;;;;2.33;1.58;;;4.60;58.90;;;;;;5012635;28;20112;-79
2022/03/17 05:10:55;;;;;;;2.72;1.70;;;4.60;58.90;;;;;;5013635;28;20030;-80
2022/03/17 05:13:22;;;;;;;3.10;1.63;;;4.70;59.10;;;;;;5012814;28;20476;-80
2022/03/17 05:15:51;;;;;;;2.90;1.58;;;4.70;59.00;;;;;;5012397;28;20034;-80
2022/03/17 05:18:17;;;;;;;4.00;1.50;;;4.70;59.00;;;;;;5011355;28;20100;-80
2022/03/17 05:20:43;;;;;;;3.75;1.85;;;4.70;59.00;;;;;;5014276;28;20033;-80
2022/03/17 05:23:11;;;;;;;3.17;1.77;;;4.70;58.90;;;;;;5014017;28;20126;-79
2022/03/17 05:25:39;;;;;;;4.05;2.10;;;4.70;58.90;;;;;;5015122;28;20045;-80
2022/03/17 05:28:08;;;;;;;3.50;2.13;;;4.80;59.00;;;;;;5015070;28;20037;-81
2022/03/17 05:30:35;;;;;;;4.57;2.50;;;4.80;59.00;;;;;;5012295;28;20037;-79
2022/03/17 05:33:02;;;;;;;3.35;2.17;;;4.80;59.00;;;;;;5013952;28;20030;-79
2022/03/17 05:35:28;;;;;;;4.88;2.10;;;4.80;59.00;;;;;;5023113;28;20022;-80
2022/03/17 05:37:58;;;;;;;4.22;1.95;;;4.80;58.90;;;;;;5000273;28;20089;-79
2022/03/17 05:40:25;;;;;;;3.90;1.77;;;4.90;59.10;;;;;;5008844;28;20224;-79
2022/03/17 05:42:54;;;;;;;4.95;2.83;;;4.90;59.10;;;;;;5003626;28;20069;-79
2022/03/17 05:45:20;;;;;;;3.08;2.20;;;4.90;59.10;;;;;;5009774;28;20539;-78
2022/03/17 05:47:51;;;;;;;3.05;2.03;;;4.90;59.00;;;;;;5004722;28;20429;-79
2022/03/17 05:50:22;;;;;;;5.15;2.38;;;4.90;59.00;;;;;;5013363;28;20034;-79
2022/03/17 05:52:49;;;;;;;5.38;2.38;;;4.90;59.00;;;;;;5009753;28;20061;-80
2022/03/17 05:55:20;;;;;;;4.20;1.90;;;5.00;59.20;;;;;;5009917;28;20114;-80
2022/03/17 05:57:48;;;;;;;4.20;2.15;;;4.90;59.00;;;;;;5010850;28;20045;-80
2022/03/17 06:00:20;;;;;;;2.90;1.85;;;5.00;59.20;;;;;;5010561;28;20026;-80
2022/03/17 06:02:48;;;;;;;4.75;2.13;;;4.90;59.00;;;;;;5025054;28;20092;-79
2022/03/17 06:05:14;;;;;;;3.10;2.30;;;5.00;59.20;;;;;;5007342;28;20026;-79
2022/03/17 06:07:48;;;;;;;3.40;2.05;;;5.00;59.20;;;;;;5008555;28;20033;-80
2022/03/17 06:10:16;;;;;;;3.80;2.05;;;4.90;59.00;;;;;;5008569;28;20037;-79
2022/03/17 06:12:44;;;;;;;4.28;2.72;;;5.00;59.20;;;;;;5007646;28;20437;-79
2022/03/17 06:15:11;;;;;;;3.40;1.92;;;5.00;59.20;;;;;;5001541;28;20053;-79
2022/03/17 06:17:42;;;;;;;4.63;2.40;;;4.90;59.00;;;;;;5001986;28;20034;-80
2022/03/17 06:20:12;;;;;;;5.25;2.38;;;4.90;59.00;;;;;;5001974;28;20029;-79
2022/03/17 06:22:43;;;;;;;4.75;2.03;;;4.90;59.10;;;;;;4994941;28;20120;-79
2022/03/17 06:25:11;;;;;;;5.80;2.58;;;4.90;59.10;;;;;;5005841;28;20169;-81
2022/03/17 06:27:37;;;;;;;4.18;2.55;;;4.90;59.10;;;;;;5003450;28;20141;-79
2022/03/17 06:30:05;;;;;;;4.68;2.92;;;4.80;58.90;;;;;;5003221;28;20444;-78
2022/03/17 06:32:35;;;;;;;4.38;2.45;;;4.90;59.70;;;;;;5016070;28;20034;-78
2022/03/17 06:35:01;;;;;;;5.88;3.13;;;4.90;59.20;;;;;;5005187;28;20033;-79
2022/03/17 06:37:27;;;;;;;6.18;3.50;;;4.90;59.20;;;;;;4995235;28;20037;-77
2022/03/17 06:39:55;;;;;;;7.32;4.30;;;4.90;59.20;;;;;;4998366;28;20052;-78
2022/03/17 06:42:22;;;;;;;4.38;3.03;;;4.90;59.20;;;;;;5015164;28;20026;-79
2022/03/17 06:44:48;;;;;;;10.82;4.53;;;4.80;59.00;;;;;;5003673;28;20466;-79
2022/03/17 06:47:14;;;;;;;5.63;3.58;;;4.80;59.00;;;;;;5004114;28;20095;-80
2022/03/17 06:49:39;;;;;;;5.05;3.17;;;4.80;59.10;;;;;;4997628;28;20038;-78
2022/03/17 06:52:05;;;;;;;7.00;3.63;;;4.80;59.10;;;;;;5004319;28;20034;-79
2022/03/17 06:54:31;;;;;;;5.05;3.45;;;4.80;59.20;;;;;;5004252;28;20133;-79
2022/03/17 06:56:59;;;;;;;5.80;3.28;;;4.80;59.20;;;;;;5001515;28;20088;-78
2022/03/17 06:59:25;;;;;;;7.50;4.10;;;4.90;59.50;;;;;;5002874;28;20105;-80
2022/03/17 07:01:51;;;;;;;9.82;3.10;;;4.90;59.50;;;;;;5003828;28;20521;-81
2022/03/17 07:04:17;;;;;;;14.23;3.75;;;5.00;59.70;;;;;;5000462;28;20030;-86
2022/03/17 07:06:43;;;;;;;5.38;3.22;;;5.10;59.90;;;;;;4986697;28;20340;-80
2022/03/17 07:09:08;;;;;;;6.63;3.10;;;5.10;59.90;;;;;;5004704;28;20661;-88
2022/03/17 07:11:37;;;;;;;6.55;3.45;;;5.10;59.80;;;;;;5015593;28;20038;-80
2022/03/17 07:14:03;;;;;;;7.82;2.92;;;5.20;59.90;;;;;;4991431;28;20389;-82
2022/03/17 07:16:29;;;;;;;5.85;3.20;;;5.20;59.90;;;;;;5004810;28;20104;-82
2022/03/17 07:18:57;;;;;;;6.32;3.45;;;5.30;60.00;;;;;;5004884;28;20033;-82
2022/03/17 07:21:23;;;;;;;6.80;3.50;;;5.40;60.10;;;;;;5002545;28;20524;-78
2022/03/17 07:23:49;;;;;;;6.85;3.75;;;5.50;60.20;;;;;;5009122;28;20094;-82
2022/03/17 07:26:15;;;;;;;7.60;3.63;;;5.60;60.20;;;;;;5026947;28;20046;-81
2022/03/17 07:28:41;;;;;;;6.95;3.92;;;5.70;60.10;;;;;;4998815;28;20029;-80
2022/03/17 07:31:06;;;;;;;9.80;4.10;;;5.80;60.10;;;;;;4999754;28;20034;-81
2022/03/17 07:33:32;;;;;;;5.95;3.60;;;5.90;60.20;;;;;;5012132;28;20323;-86
2022/03/17 07:35:58;;;;;;;7.30;4.60;;;6.00;60.30;;;;;;5002367;28;20076;-84
2022/03/17 07:38:24;;;;;;;7.65;3.90;;;6.10;60.30;;;;;;5005870;28;20041;-87
2022/03/17 07:40:50;;;;;;;6.93;3.85;;;6.20;60.40;;;;;;5003515;28;20032;-84
2022/03/17 07:43:16;;;;;;;8.55;4.00;;;6.30;60.40;;;;;;5002311;28;20117;-88
2022/03/17 07:46:11;;;;;;;8.10;3.90;;;6.40;60.40;;;;;;4993883;28;20043;-87
2022/03/17 07:48:56;;;;;;;7.32;3.85;;;6.50;60.40;;;;;;5003480;28;20042;-89
2022/03/17 07:51:31;;;;;;;5.55;4.13;;;6.50;60.30;;;;;;5009090;28;20084;-89
2022/03/17 07:53:57;;;;;;;6.68;3.88;;;6.70;60.50;;;;;;5002305;28;20057;-89
2022/03/17 07:56:23;;;;;;;7.03;4.82;;;6.70;60.50;;;;;;5002385;28;20084;-89
2022/03/17 07:58:49;;;;;;;9.65;4.50;;;6.70;60.40;;;;;;5001702;28;20050;-89
2022/03/17 08:01:17;;;;;;;6.97;4.00;;;6.80;60.60;;;;;;5003105;28;20037;-88
2022/03/17 08:03:43;;;;;;;9.30;4.10;;;6.90;60.70;;;;;;5003655;28;20026;-89
2022/03/17 08:06:11;;;;;;;5.78;4.25;;;6.90;60.70;;;;;;5004632;28;20029;-88
2022/03/17 08:08:37;;;;;;;7.07;3.55;;;7.00;60.80;;;;;;5003187;28;20226;-86
2022/03/17 08:11:03;;;;;;;6.57;3.17;;;7.10;60.90;;;;;;5004911;28;20040;-89
2022/03/17 08:13:29;;;;;;;7.10;3.67;;;7.20;60.90;;;;;;5002028;28;20041;-84
2022/03/17 08:15:55;;;;;;;7.75;3.35;;;7.30;61.00;;;;;;5004925;28;20397;-83
2022/03/17 08:18:21;;;;;;;6.30;3.58;;;7.40;61.10;;;;;;4998185;28;20078;-83
2022/03/17 08:20:47;;;;;;;5.97;3.08;;;7.40;61.00;;;;;;5002989;28;20251;-89
2022/03/17 08:23:19;;;;;;;9.93;3.33;;;7.50;61.10;;;;;;4995326;28;20076;-89
2022/03/17 08:25:49;;;;;;;7.15;3.30;;;7.60;61.20;;;;;;4980081;28;20104;-89
2022/03/17 08:28:17;;;;;;;7.38;3.30;;;7.60;61.10;;;;;;5017348;28;20117;-89
2022/03/17 08:30:46;;;;;;;5.22;3.35;;;7.70;61.30;;;;;;4999340;28;20489;-90
2022/03/17 08:33:14;;;;;;;8.20;2.67;;;7.70;61.20;;;;;;5005394;28;20030;-90
2022/03/17 08:35:41;;;;;;;6.13;2.88;;;7.80;61.40;;;;;;4990747;28;20084;-90
2022/03/17 08:38:07;;;;;;;7.68;2.72;;;7.90;61.50;;;;;;5022785;28;20532;-86
2022/03/17 08:40:34;;;;;;;6.93;2.45;;;8.00;61.60;;;;;;5006429;28;20417;-91
2022/03/17 08:43:00;;;;;;;4.43;2.40;;;8.00;61.50;;;;;;5004345;28;20033;-87
2022/03/17 08:50:55;;;;;;;5.05;2.55;;;8.30;61.70;;;;;;5022360;28;20026;-89
2022/03/17 08:53:21;;;;;;;10.48;3.53;;;8.30;61.60;;;;;;5007684;28;20111;-89
2022/03/17 08:55:47;;;;;;;10.38;3.13;;;8.40;61.80;;;;;;5004127;28;20404;-89
2022/03/17 08:58:17;;;;;;;7.70;2.28;;;8.40;61.80;;;;;;5004822;28;20072;-88
2022/03/17 09:00:44;;;;;;;9.25;3.17;;;8.50;62.00;;;;;;5018147;28;20065;-85
2022/03/17 09:03:10;;;;;;;9.65;3.80;;;8.50;61.90;;;;;;4989988;28;20152;-89
2022/03/17 09:05:36;;;;;;;6.25;2.17;;;8.60;62.10;;;;;;5006828;28;20082;-82
2022/03/17 09:08:04;;;;;;;7.50;3.40;;;8.70;62.20;;;;;;5021660;28;20073;-83
2022/03/17 09:10:32;;;;;;;9.35;2.08;;;8.70;62.10;;;;;;5006953;28;20445;-81
2022/03/17 09:13:05;;;;;;;7.20;2.10;;;8.80;62.30;;;;;;5000044;28;20372;-83
2022/03/17 09:15:32;;;;;;;5.57;2.33;;;8.90;62.40;;;;;;5006705;28;20064;-86
2022/03/17 09:17:58;;;;;;;11.98;1.77;;;8.90;62.30;;;;;;5006979;28;20049;-83
2022/03/17 09:20:24;;;;;;;4.85;1.98;;;9.10;62.50;;;;;;5004939;28;20482;-82
2022/03/17 09:22:50;;;;;;;6.20;1.90;;;9.10;62.40;;;;;;5007229;28;20045;-81
2022/03/17 09:25:23;;;;;;;7.03;1.95;;;9.20;62.50;;;;;;5006103;28;20026;-83
2022/03/17 09:27:53;;;;;;;4.72;1.52;;;9.30;62.60;;;;;;5021242;28;20255;-80
2022/03/17 09:30:19;;;;;;;6.18;3.08;;;9.30;62.50;;;;;;5007007;28;20157;-77
2022/03/17 09:32:45;;;;;;;6.88;2.10;;;9.30;62.50;;;;;;5006351;28;20069;-79
2022/03/17 09:35:12;;;;;;;7.05;2.30;;;9.40;62.70;;;;;;5006657;28;20521;-80
2022/03/17 09:37:39;;;;;;;4.70;1.60;;;9.40;62.70;;;;;;5006585;28;20113;-78
2022/03/17 09:40:07;;;;;;;9.23;2.10;;;9.50;62.90;;;;;;4993292;28;20039;-79
2022/03/17 09:42:35;;;;;;;4.65;1.83;;;9.50;62.80;;;;;;5004034;28;20586;-79
2022/03/17 09:45:00;;;;;;;4.32;1.40;;;9.50;62.90;;;;;;5004355;28;20132;-81
2022/03/17 09:47:29;;;;;;;3.55;1.40;;;9.50;62.90;;;;;;5005931;28;20128;-80
2022/03/17 09:49:56;;;;;;;9.70;1.95;;;9.60;63.00;;;;;;5005239;28;20038;-80
2022/03/17 09:52:22;;;;;;;4.63;1.73;;;9.60;63.00;;;;;;5022248;28;20063;-81
2022/03/17 09:54:51;;;;;;;6.03;1.63;;;9.70;63.10;;;;;;5008034;28;20077;-86
2022/03/17 09:57:21;;;;;;;6.40;2.35;;;9.70;63.10;;;;;;5018147;28;20084;-86
2022/03/17 09:59:48;;;;;;;3.55;1.45;;;9.80;63.30;;;;;;5006007;28;20100;-86
2022/03/17 10:02:16;;;;;;;5.95;1.70;;;9.80;63.20;;;;;;5008282;28;20086;-88
2022/03/17 10:04:47;;;;;;;7.30;1.75;;;9.80;63.20;;;;;;5006166;28;20116;-87
2022/03/17 10:07:17;;;;;;;4.15;1.50;;;9.90;63.30;;;;;;5030845;28;20033;-85
2022/03/17 10:09:45;;;;;;;3.50;1.35;;;9.90;63.20;;;;;;5030407;28;20038;-85
2022/03/17 10:12:14;;;;;;;4.50;2.58;;;10.00;63.30;;;;;;5011623;28;20132;-85
2022/03/17 10:14:46;;;;;;;5.88;2.25;;;10.00;63.20;;;;;;5021174;28;20045;-84
2022/03/17 10:17:35;;;;;;;4.13;1.33;;;10.00;63.10;;;;;;5009465;28;20277;-84
2022/03/17 10:20:29;;;;;;;9.13;2.83;;;10.10;63.20;;;;;;5017117;28;20034;-85
2022/03/17 10:23:01;;;;;;;5.32;1.52;;;10.20;63.20;;;;;;5023525;28;20080;-85
2022/03/17 10:25:34;;;;;;;5.33;1.30;;;10.20;63.10;;;;;;5023922;28;20448;-84
2022/03/17 10:28:02;;;;;;;2.13;1.13;;;10.30;63.20;;;;;;5008900;28;20895;-84
2022/03/17 10:30:33;;;;;;;7.93;2.15;;;10.30;63.10;;;;;;5025664;28;20030;-84
2022/03/17 10:33:04;;;;;;;7.57;2.67;;;10.40;63.20;;;;;;5010078;28;20042;-83
2022/03/17 10:35:36;;;;;;;3.55;1.70;;;10.50;63.10;;;;;;5009544;28;20140;-84
2022/03/17 10:38:13;;;;;;;5.93;1.60;;;10.70;63.20;;;;;;5009728;28;20060;-85
2022/03/17 10:40:39;;;;;;;5.22;1.10;;;10.90;63.30;;;;;;5009813;28;20896;-84
2022/03/17 10:43:19;;;;;;;6.55;1.45;;;11.00;63.00;;;;;;4999260;28;20186;-82
2022/03/17 10:45:46;;;;;;;4.78;1.30;;;11.20;63.00;;;;;;5009218;28;20022;-91
2022/03/17 10:48:12;;;;;;;4.32;1.35;;;11.30;63.00;;;;;;5000315;28;20149;-85
2022/03/17 10:50:40;;;;;;;3.40;1.10;;;11.40;62.90;;;;;;5006893;28;20054;-83
2022/03/17 10:53:06;;;;;;;4.78;1.10;;;11.40;62.80;;;;;;5006426;28;20081;-82
2022/03/17 10:55:35;;;;;;;3.47;1.30;;;11.50;62.90;;;;;;5006438;28;20030;-81
2022/03/17 10:58:18;;;;;;;5.07;1.30;;;11.50;63.10;;;;;;4998705;28;20327;-81
2022/03/17 11:00:50;;;;;;;4.97;0.90;;;11.60;63.00;;;;;;5007399;28;20054;-81
2022/03/17 11:03:19;;;;;;;3.28;1.20;;;11.60;63.00;;;;;;4997503;28;20037;-80
2022/03/17 11:05:45;;;;;;;4.57;1.42;;;11.60;62.90;;;;;;5008592;28;20033;-80
2022/03/17 11:08:11;;;;;;;3.08;1.20;;;11.60;62.90;;;;;;5023832;28;20492;-79
2022/03/17 11:10:39;;;;;;;2.88;0.98;;;11.70;63.10;;;;;;5023587;28;20034;-80
2022/03/17 11:13:11;;;;;;;3.63;0.98;;;11.70;63.00;;;;;;5005761;28;20519;-80
2022/03/17 11:15:42;;;;;;;4.13;0.82;;;11.80;63.00;;;;;;5005956;28;20247;-79
2022/03/17 11:18:13;;;;;;;3.47;1.17;;;11.80;62.90;;;;;;5007784;28;20042;-79
2022/03/17 11:20:42;;;;;;;7.80;2.13;;;11.90;62.90;;;;;;4999953;28;20084;-80
2022/03/17 11:23:18;;;;;;;3.78;0.90;;;11.90;62.70;;;;;;5005240;28;20041;-80
2022/03/17 11:25:55;;;;;;;5.05;1.10;;;12.00;62.80;;;;;;5004014;28;20112;-79
2022/03/17 11:28:32;;;;;;;3.58;1.15;;;12.00;62.60;;;;;;4986021;28;20034;-79
2022/03/17 11:31:00;;;;;;;4.18;0.90;;;12.00;62.40;;;;;;5001766;28;20100;-79
2022/03/17 11:33:31;;;;;;;6.45;1.13;;;12.00;62.40;;;;;;5005080;28;20026;-80
2022/03/17 11:36:01;;;;;;;2.28;0.80;;;12.10;62.40;;;;;;5005871;28;20030;-87
2022/03/17 11:38:38;;;;;;;4.63;1.17;;;12.10;62.30;;;;;;5016879;28;20128;-87
2022/03/17 11:41:09;;;;;;;4.55;0.90;;;12.20;62.40;;;;;;5020599;28;20046;-89
2022/03/17 11:43:45;;;;;;;1.17;0.68;;;12.20;62.30;;;;;;5003084;28;20646;-88
2022/03/17 11:46:15;;;;;;;2.30;0.60;;;12.20;62.20;;;;;;5004142;28;20038;-87
2022/03/17 11:48:43;;;;;;;2.53;0.93;;;12.30;62.20;;;;;;4982643;28;20049;-89
2022/03/17 11:51:11;;;;;;;4.93;1.08;;;12.30;62.10;;;;;;4992862;28;20027;-86
2022/03/17 11:53:43;;;;;;;2.95;0.70;;;12.40;62.10;;;;;;4992292;28;20151;-86
2022/03/17 11:56:10;;;;;;;4.47;1.33;;;12.50;62.10;;;;;;5017134;28;20040;-84
2022/03/17 11:58:43;;;;;;;3.30;0.90;;;12.60;62.20;;;;;;5017724;28;20053;-92
2022/03/17 12:01:27;;;;;;;;;;;12.70;62.50;;;;;;5034895;28;20335;-91
2022/03/17 12:04:00;;;;;;;2.60;0.80;;;12.80;62.50;;;;;;5018996;28;19909;-90
2022/03/17 12:06:30;;;;;;;1.67;0.52;;;12.90;62.50;;;;;;4990695;28;20045;-90
2022/03/17 12:09:04;;;;;;;2.00;0.70;;;12.90;62.40;;;;;;5015132;28;20030;-86
2022/03/17 12:11:32;;;;;;;5.28;0.98;;;13.00;62.50;;;;;;5016451;28;20180;-89
2022/03/17 12:14:25;;;;;;;3.20;0.80;;;13.00;62.50;;;;;;5004130;28;20117;-90
2022/03/17 12:16:51;;;;;;;2.08;0.73;;;13.10;62.60;;;;;;5018953;28;20033;-89
2022/03/17 12:19:39;;;;;;;2.22;0.57;;;13.10;62.50;;;;;;5015360;28;20049;-90
2022/03/17 12:22:27;;;;;;;3.85;1.02;;;13.10;62.40;;;;;;5018732;28;20034;-82
2022/03/17 12:25:01;;;;;;;5.10;0.90;;;13.10;62.30;;;;;;4995406;28;20030;-86
2022/03/17 12:27:33;;;;;;;3.05;0.90;;;13.20;62.40;;;;;;5003288;28;20030;-81
2022/03/17 12:30:17;;;;;;;1.45;0.40;;;13.20;62.30;;;;;;5002801;28;20088;-82
2022/03/17 12:32:53;;;;;;;2.33;0.98;;;13.20;62.20;;;;;;5004789;28;20571;-82
2022/03/17 12:35:30;;;;;;;3.10;0.80;;;13.30;62.20;;;;;;5003284;28;20404;-82
2022/03/17 12:38:02;;;;;;;2.53;0.70;;;13.30;62.10;;;;;;5003639;28;20046;-86
2022/03/17 12:40:35;;;;;;;2.13;0.50;;;13.40;62.20;;;;;;5005274;28;20029;-87
2022/03/17 12:43:16;;;;;;;3.80;0.77;;;13.40;62.00;;;;;;5007079;28;20511;-84
2022/03/17 12:45:43;;;;;;;1.83;0.60;;;13.50;62.10;;;;;;5003067;28;20112;-87
2022/03/17 12:48:10;;;;;;;2.95;0.70;;;13.50;61.90;;;;;;5000814;28;20042;-88
2022/03/17 12:50:36;;;;;;;3.13;0.88;;;13.60;62.00;;;;;;5004734;28;20034;-89
2022/03/17 12:53:02;;;;;;;2.45;1.17;;;13.60;61.80;;;;;;5018366;28;20219;-89
2022/03/17 12:55:29;;;;;;;1.75;0.65;;;13.60;61.70;;;;;;5004128;28;20034;-87
2022/03/17 12:57:56;;;;;;;3.15;0.60;;;13.70;61.70;;;;;;5001656;28;20666;-87
2022/03/17 13:00:23;;;;;;;5.90;1.45;;;13.80;61.60;;;;;;5004871;28;20066;-89
2022/03/17 13:02:51;;;;;;;4.05;1.60;;;14.00;61.80;;;;;;5002987;28;20780;-89
2022/03/17 13:08:05;;;;;;;2.95;0.70;;;14.30;61.60;;;;;;4994705;28;20038;-89
2022/03/17 13:16:02;;;;;;;2.80;0.45;;;14.70;61.20;;;;;;5002437;28;20034;-88
2022/03/17 13:18:50;;;;;;;1.50;0.70;;;14.90;61.20;;;;;;5014226;28;20079;-87
2022/03/17 13:21:26;;;;;;;3.75;1.20;;;15.10;61.20;;;;;;4978449;28;20493;-87